Latest Weather Observations for Middle Point

IDD60901

Issued at 10:31 pm CST Thursday 11 February 2016 (issued every 10 minutes, with the page automatically refreshed every 10 minutes)

About weather observations | Map of Darwin area stations | Latest observations for Darwin area | Other Formats
Station Details ID: 014041 Name: MIDDLE POINT Lat: -12.61 Lon: 131.30 Height: 14.1 m
Data from the previous 72 hours. | See also: Recent months at Middle Point
Date/Time
CST
Tmp

°C
App
Tmp
°C
Dew
Point
°C
Rel
Hum
%
Delta-T

°C
Wind Press
QNH
hPa
Press
MSL
hPa
Rain
since
9 am
mm
Dir
 
Spd
km/h
Gust
km/h
Spd
kts
Gust
kts
11/10:30pm 26.0 31.2 22.9 83 2.1 CALM 0 2 0 1 1007.7 1007.6 0.4
11/10:00pm 26.1 31.1 23.2 84 2.0 WSW 2 6 1 3 1007.5 1007.4 0.4
11/09:30pm 26.3 30.7 22.8 81 2.4 WNW 4 6 2 3 1007.1 1007.0 0.4
11/09:00pm 26.8 28.6 21.8 74 3.4 WNW 15 20 8 11 1006.6 1006.5 0.4
11/08:30pm 28.4 31.1 23.5 75 3.4 W 15 26 8 14 1006.4 1006.3 0.4
11/08:00pm 28.3 33.7 24.5 80 2.6 NW 4 6 2 3 1005.7 1005.6 0.4
11/07:30pm 29.3 33.3 24.4 75 3.4 NW 11 17 6 9 1004.7 1004.6 0.4
11/07:00pm 30.2 33.9 24.6 72 3.9 NW 13 20 7 11 1004.8 1004.7 0.4
11/06:30pm 32.1 36.2 25.2 67 4.9 NW 13 19 7 10 1004.1 1004.0 0.4
11/06:00pm 33.7 39.3 25.4 62 5.9 WNW 6 15 3 8 1003.7 1003.6 0.4
11/05:30pm 35.6 40.1 22.9 48 8.8 SW 4 9 2 5 1003.2 1003.1 0.4
11/05:00pm 35.5 39.3 22.8 47 8.8 SW 7 13 4 7 1003.2 1003.1 0.4
11/04:30pm 35.4 39.2 22.7 47 8.8 WSW 7 17 4 9 1003.4 1003.3 0.4
11/04:00pm 35.3 39.6 23.3 50 8.4 WSW 6 13 3 7 1003.4 1003.3 0.4
11/03:30pm 34.7 38.9 23.4 52 7.9 WSW 7 13 4 7 1003.7 1003.6 0.4
11/03:00pm 35.2 38.3 23.5 50 8.2 WSW 13 22 7 12 1003.9 1003.8 0.4
11/02:30pm 34.8 38.8 23.8 53 7.7 SSW 9 15 5 8 1004.3 1004.2 0.4
11/02:00pm 34.9 39.0 24.5 54 7.3 SW 11 20 6 11 1004.8 1004.7 0.4
11/01:30pm 34.4 38.2 24.0 54 7.3 SW 11 19 6 10 1005.1 1005.0 0.4
11/01:00pm 34.3 38.5 24.8 57 6.7 WSW 11 17 6 9 1005.6 1005.5 0.4
11/12:30pm 33.5 37.6 25.2 62 5.9 SW 13 19 7 10 1006.1 1006.0 0.4
11/12:00pm 32.9 37.5 25.4 64 5.3 WSW 11 19 6 10 1006.4 1006.3 0.4
11/11:30am 32.2 37.3 25.0 65 5.1 SW 7 20 4 11 1006.8 1006.7 0.4
11/11:00am 31.1 35.9 24.5 68 4.6 WSW 7 13 4 7 1007.2 1007.1 0.4
11/10:30am 30.3 35.5 24.2 70 4.3 WSW 4 9 2 5 1007.4 1007.3 0.4
11/10:00am 29.2 35.2 24.3 75 3.4 CALM 0 2 0 1 1007.9 1007.8 0.2
11/09:30am 28.7 34.6 24.7 79 2.8 S 2 4 1 2 1008.1 1008.0 0.0
11/09:00am 28.0 34.6 25.2 85 2.0 CALM 0 2 0 1 1008.1 1008.0 28.8
11/08:30am 27.2 33.3 25.0 88 1.5 SE 2 6 1 3 1008.0 1007.9 28.8
11/08:00am 26.2 32.2 24.8 92 1.0 SSW 2 6 1 3 1007.7 1007.6 28.8
11/07:30am 25.6 31.2 24.2 92 1.0 N 2 6 1 3 1006.9 1006.8 28.8
11/07:00am 25.5 30.6 24.1 92 1.0 ENE 4 6 2 3 1006.8 1006.7 28.8
11/06:30am 25.5 30.6 24.1 92 1.0 NNE 4 4 2 2 1006.7 1006.6 28.8
11/06:00am 25.5 30.9 23.9 91 1.1 SSW 2 4 1 2 1006.3 1006.2 28.8
11/05:30am 25.6 29.7 24.0 91 1.1 SW 9 11 5 6 1006.6 1006.5 28.8
11/05:00am 25.9 30.9 24.5 92 1.0 SW 6 7 3 4 1007.2 1007.1 28.8
11/04:30am 25.9 30.3 24.5 92 1.0 S 9 15 5 8 1007.5 1007.4 28.8
11/04:00am 25.8 30.6 24.4 92 1.0 S 7 11 4 6 1007.2 1007.1 28.8
11/03:30am 25.5 29.8 24.3 93 0.8 SE 9 13 5 7 1006.7 1006.6 28.8
11/03:00am 24.9 29.7 23.5 92 1.0 NE 4 4 2 2 1006.4 1006.3 28.8
11/02:30am 25.0 30.2 23.6 92 1.0 NNE 2 4 1 2 1006.2 1006.1 28.6
11/02:00am 25.0 29.9 23.6 92 1.0 N 4 4 2 2 1006.4 1006.3 28.6
11/01:30am 25.3 31.0 23.7 91 1.1 CALM 0 4 0 2 1006.9 1006.8 28.6
11/01:00am 25.7 31.2 24.1 91 1.1 NNE 2 6 1 3 1007.7 1007.6 28.6
11/12:30am 25.7 30.4 24.3 92 1.0 ESE 7 11 4 6 1008.1 1008.0 28.6
11/12:00am 25.5 28.9 24.1 92 1.0 S 13 15 7 8 1008.1 1008.0 28.6
 
Date/Time
CST
Tmp

°C
App
Tmp
°C
Dew
Point
°C
Rel
Hum
%
Delta-T

°C
Wind Press
QNH
hPa
Press
MSL
hPa
Rain
since
9 am
mm
Dir
 
Spd
km/h
Gust
km/h
Spd
kts
Gust
kts
10/11:30pm 25.1 30.8 23.7 92 1.0 CALM 0 0 0 0 1007.3 1007.2 28.6
10/11:00pm 25.1 29.5 23.5 91 1.1 NNE 6 6 3 3 1007.3 1007.2 28.6
10/10:30pm 25.2 30.7 23.4 90 1.2 CALM 0 0 0 0 1007.4 1007.3 28.6
10/10:00pm 25.3 29.7 23.4 89 1.3 WNW 6 9 3 5 1007.0 1006.9 28.6
10/09:30pm 25.1 29.2 23.2 89 1.3 W 7 11 4 6 1006.6 1006.5 28.6
10/09:00pm 25.4 29.5 23.3 88 1.4 W 7 9 4 5 1006.7 1006.6 28.6
10/08:30pm 25.5 29.8 23.6 89 1.3 SSW 7 15 4 8 1007.2 1007.1 28.6
10/08:00pm 25.6 30.5 23.1 86 1.7 WNW 2 4 1 2 1006.7 1006.6 28.6
10/07:30pm 25.6 30.9 23.1 86 1.7 CALM 0 0 0 0 1006.0 1005.9 28.6
10/07:00pm 25.9 30.0 23.2 85 1.8 WNW 7 11 4 6 1005.3 1005.2 28.6
10/06:30pm 25.2 27.7 22.5 85 1.8 NW 13 17 7 9 1004.7 1004.6 28.6
10/06:00pm 24.9 27.4 23.1 90 1.2 NW 15 19 8 10 1004.7 1004.6 28.6
10/05:30pm 24.7 27.9 23.1 91 1.1 NNW 11 17 6 9 1004.8 1004.7 28.6
10/05:00pm 24.8 28.1 23.2 91 1.1 N 11 15 6 8 1004.9 1004.8 28.6
10/04:30pm 25.1 26.7 23.3 90 1.2 NNW 20 28 11 15 1005.5 1005.4 27.0
10/04:00pm 25.6 28.4 23.7 89 1.3 W 15 30 8 16 1005.6 1005.5 14.6
10/03:30pm 26.2 26.2 23.7 86 1.7 NNE 30 44 16 24 1004.9 1004.8 6.2
10/03:21pm 27.2 28.2 24.1 83 2.1 NE 26 44 14 24 1004.7 1004.6 5.8
10/03:00pm 28.6 32.2 24.4 78 2.9 WSW 13 24 7 13 1004.4 1004.3 5.4
10/02:30pm 30.0 35.8 26.6 82 2.4 NW 9 15 5 8 1004.3 1004.2 2.6
10/02:00pm 27.7 30.6 24.5 83 2.2 NW 17 24 9 13 1005.1 1005.0 2.0
10/01:30pm 30.0 33.2 24.9 74 3.6 NW 17 26 9 14 1005.7 1005.6 0.2
10/01:00pm 32.6 37.1 25.2 65 5.2 W 11 17 6 9 1006.0 1005.9 0.2
10/12:30pm 33.3 37.7 25.6 64 5.5 NW 13 19 7 10 1006.4 1006.3 0.0
10/12:00pm 33.9 39.0 26.1 63 5.6 WSW 11 19 6 10 1006.9 1006.8 0.0
10/11:30am 33.4 38.0 25.9 65 5.4 WSW 13 19 7 10 1007.2 1007.1 0.0
10/11:00am 33.0 36.9 26.0 66 5.0 W 17 24 9 13 1007.5 1007.4 0.0
10/10:30am 31.4 35.2 25.3 70 4.3 W 15 22 8 12 1007.7 1007.6 0.0
10/10:00am 31.3 35.6 26.1 74 3.7 W 15 19 8 10 1007.8 1007.7 0.0
10/09:30am 31.0 35.6 26.5 77 3.2 W 15 20 8 11 1008.1 1008.0 0.0
10/09:00am 29.8 36.4 26.4 82 2.4 WSW 4 9 2 5 1008.1 1008.0 37.8
10/08:30am 28.0 34.6 25.2 85 2.0 CALM 0 0 0 0 1008.1 1008.0 37.8
10/08:00am 26.6 33.1 25.0 91 1.1 CALM 0 0 0 0 1007.9 1007.8 37.8
10/07:30am 25.7 31.8 24.5 93 0.8 CALM 0 0 0 0 1007.5 1007.4 37.8
10/07:00am 25.2 30.9 23.8 92 1.0 CALM 0 0 0 0 1007.1 1007.0 37.8
10/06:30am 25.3 31.1 23.9 92 1.0 CALM 0 0 0 0 1006.7 1006.6 37.8
10/06:00am 25.5 31.4 24.1 92 1.0 CALM 0 0 0 0 1006.3 1006.2 37.8
10/05:30am 25.4 31.2 24.0 92 1.0 CALM 0 0 0 0 1006.1 1006.0 37.8
10/05:00am 25.3 31.1 23.9 92 1.0 CALM 0 0 0 0 1005.9 1005.8 37.8
10/04:30am 25.5 31.4 24.1 92 1.0 CALM 0 0 0 0 1005.7 1005.6 37.6
10/04:00am 25.5 31.4 24.1 92 1.0 CALM 0 0 0 0 1005.7 1005.6 37.6
10/03:30am 25.5 31.4 24.1 92 1.0 CALM 0 0 0 0 1005.9 1005.8 37.6
10/03:00am 25.5 30.3 24.1 92 1.0 SW 6 7 3 4 1006.1 1006.0 37.6
10/02:30am 25.7 31.7 24.3 92 1.0 CALM 0 0 0 0 1006.5 1006.4 37.6
10/02:00am 25.7 31.0 24.3 92 1.0 S 4 6 2 3 1006.9 1006.8 37.6
10/01:30am 25.7 31.7 24.3 92 1.0 CALM 0 0 0 0 1007.4 1007.3 37.6
10/01:00am 25.5 30.1 24.1 92 1.0 SE 7 11 4 6 1007.8 1007.7 37.6
10/12:30am 25.5 30.3 24.1 92 1.0 NE 6 6 3 3 1008.0 1007.9 37.6
10/12:00am 25.3 29.8 23.9 92 1.0 N 7 9 4 5 1008.1 1008.0 37.6
 
Date/Time
CST
Tmp

°C
App
Tmp
°C
Dew
Point
°C
Rel
Hum
%
Delta-T

°C
Wind Press
QNH
hPa
Press
MSL
hPa
Rain
since
9 am
mm
Dir
 
Spd
km/h
Gust
km/h
Spd
kts
Gust
kts
09/11:30pm 25.5 31.4 24.1 92 1.0 CALM 0 0 0 0 1008.4 1008.3 37.6
09/11:00pm 25.4 31.2 24.0 92 1.0 CALM 0 0 0 0 1008.5 1008.4 37.6
09/10:30pm 25.1 30.8 23.7 92 1.0 CALM 0 0 0 0 1008.2 1008.1 37.6
09/10:00pm 25.0 29.5 23.6 92 1.0 NNW 6 9 3 5 1008.2 1008.1 37.6
09/09:30pm 25.0 29.4 23.8 93 0.8 NW 7 9 4 5 1008.3 1008.2 37.6
09/09:00pm 24.9 29.2 23.7 93 0.8 NW 7 9 4 5 1008.1 1008.0 37.6
09/08:30pm 24.9 29.4 23.7 93 0.8 WNW 6 7 3 4 1007.5 1007.4 37.6
09/08:00pm 25.2 28.6 24.0 93 0.8 SSW 13 20 7 11 1007.6 1007.5 37.6
09/07:30pm 24.7 30.4 23.7 94 0.7 CALM 0 2 0 1 1007.0 1006.9 37.6
09/07:00pm 24.7 29.0 23.7 94 0.7 W 7 9 4 5 1006.6 1006.5 37.6
09/06:30pm 24.4 26.7 23.4 94 0.7 WSW 17 20 9 11 1006.5 1006.4 37.6
09/06:00pm 24.5 28.7 23.5 94 0.7 W 7 13 4 7 1006.4 1006.3 37.4
09/05:30pm 24.0 26.4 23.0 94 0.7 NNE 15 22 8 12 1006.5 1006.4 37.2
09/05:00pm 23.5 25.3 22.5 94 0.7 NW 17 24 9 13 1006.2 1006.1 36.8
09/04:30pm 22.9 19.7 21.7 93 0.8 SSE 41 78 22 42 1007.0 1006.9 29.8
09/04:29pm 22.4 18.4 21.2 93 0.8 SSE 44 78 24 42 1007.0 1006.9 29.0
09/04:23pm 22.9 16.7 21.9 94 0.7 S 57 78 31 42 1006.7 1006.6 24.4
09/04:19pm 22.2 16.4 20.7 91 1.0 SSW 52 78 28 42 1006.4 1006.3 18.6
09/04:16pm 22.8 18.8 20.9 89 1.2 SSW 43 72 23 39 1006.6 1006.5 13.0
09/04:10pm 25.7 24.3 21.1 76 3.0 WSW 30 52 16 28 1006.7 1006.6 3.4
09/04:00pm 30.8 32.1 24.0 67 4.7 NW 24 37 13 20 1005.1 1005.0 0.0
09/03:30pm 35.1 39.5 25.0 56 7.2 N 11 17 6 9 1004.7 1004.6 0.0
09/03:00pm 35.4 40.3 23.0 48 8.6 E 2 7 1 4 1005.3 1005.2 0.0
09/02:30pm 36.4 40.7 23.3 47 9.2 W 6 11 3 6 1005.8 1005.7 0.0
09/02:00pm 34.8 39.2 23.8 53 7.7 NNW 7 13 4 7 1006.5 1006.4 0.0
09/01:30pm 35.0 38.7 23.3 50 8.2 WNW 9 15 5 8 1006.9 1006.8 0.0
09/01:00pm 34.5 38.5 23.8 53 7.5 NW 9 15 5 8 1007.3 1007.2 0.0
09/12:30pm 34.2 38.3 23.9 55 7.2 SW 9 13 5 7 1007.7 1007.6 0.0
09/12:00pm 33.8 38.9 24.7 59 6.4 W 6 13 3 7 1008.2 1008.1 0.0
09/11:30am 32.8 36.5 23.2 57 6.6 WSW 9 15 5 8 1008.5 1008.4 0.0
09/11:00am 33.5 38.4 24.4 59 6.4 NW 6 13 3 7 1008.7 1008.6 0.0
09/10:30am 32.7 37.5 24.5 62 5.8 W 7 15 4 8 1009.1 1009.0 0.0
09/10:00am 32.0 36.5 24.6 65 5.2 WSW 9 13 5 7 1009.3 1009.2 0.0
09/09:30am 31.3 36.8 25.6 71 4.1 WSW 7 11 4 6 1009.5 1009.4 0.0
09/09:00am 30.4 36.3 25.9 77 3.2 W 6 9 3 5 1009.4 1009.3 0.0
09/08:30am 29.1 35.8 25.9 83 2.3 WNW 2 4 1 2 1009.1 1009.0 0.0
09/08:00am 27.4 33.6 25.2 88 1.5 N 2 4 1 2 1008.9 1008.8 0.0
09/07:30am 26.3 32.3 24.9 92 1.0 E 2 4 1 2 1008.6 1008.5 0.0
09/07:00am 24.8 29.5 23.4 92 1.0 S 4 4 2 2 1008.2 1008.1 0.0
09/06:30am 24.8 29.5 23.4 92 1.0 S 4 4 2 2 1007.8 1007.7 0.0
09/06:00am 24.9 30.0 23.3 91 1.1 S 2 4 1 2 1007.6 1007.5 0.0
09/05:30am 25.0 30.5 23.4 91 1.1 CALM 0 0 0 0 1007.3 1007.2 0.0
09/05:00am 25.3 31.0 23.7 91 1.1 CALM 0 0 0 0 1007.1 1007.0 0.0
09/04:30am 25.4 30.4 23.8 91 1.1 SW 4 4 2 2 1007.0 1006.9 0.0
09/04:00am 25.1 29.9 23.5 91 1.1 W 4 4 2 2 1006.7 1006.6 0.0
09/03:30am 25.1 29.5 23.5 91 1.1 NW 6 6 3 3 1006.7 1006.6 0.0
09/03:00am 25.0 29.2 23.4 91 1.1 NW 7 7 4 4 1006.8 1006.7 0.0
09/02:30am 25.1 30.3 23.5 91 1.1 NNW 2 4 1 2 1007.1 1007.0 0.0
09/02:00am 25.1 30.5 23.3 90 1.2 CALM 0 4 0 2 1007.3 1007.2 0.0
09/01:30am 25.2 30.3 23.3 89 1.3 SW 2 4 1 2 1007.6 1007.5 0.0
09/01:00am 25.3 30.8 23.4 89 1.3 CALM 0 0 0 0 1007.9 1007.8 0.0
09/12:30am 25.4 30.6 23.5 89 1.3 NW 2 2 1 1 1008.1 1008.0 0.0
09/12:00am 25.4 30.2 23.5 89 1.3 NW 4 4 2 2 1008.2 1008.1 0.0
 
Date/Time
CST
Tmp

°C
App
Tmp
°C
Dew
Point
°C
Rel
Hum
%
Delta-T

°C
Wind Press
QNH
hPa
Press
MSL
hPa
Rain
since
9 am
mm
Dir
 
Spd
km/h
Gust
km/h
Spd
kts
Gust
kts
08/11:30pm 25.4 30.5 23.3 88 1.4 W 2 6 1 3 1008.3 1008.2 0.0
08/11:00pm 25.5 31.0 23.4 88 1.4 CALM 0 0 0 0 1008.6 1008.5 0.0

Latest Capital City Observations: Canberra | Sydney | Melbourne | Brisbane | Adelaide | Perth | Hobart | Darwin

Other Formats:

Comma delimited format used in spreadsheet applications
http://www.bom.gov.au/fwo/IDD60901/IDD60901.95121.axf

JavaScript Object Notation format (JSON) in row-major order
http://www.bom.gov.au/fwo/IDD60901/IDD60901.95121.json